sensor_id;sensor_type;location;lat;lon;timestamp;pressure;altitude;pressure_sealevel;temperature;humidity
49102;BME280;34913;47.520;19.186;2022-07-30T00:01:40;99601.16;;;23.21;60.72
49102;BME280;34913;47.520;19.186;2022-07-30T00:04:05;99585.59;;;23.17;60.65
49102;BME280;34913;47.520;19.186;2022-07-30T00:06:30;99586.34;;;23.30;60.06
49102;BME280;34913;47.520;19.186;2022-07-30T00:08:57;99596.38;;;23.23;60.33
49102;BME280;34913;47.520;19.186;2022-07-30T00:11:23;99590.91;;;23.30;60.12
49102;BME280;34913;47.520;19.186;2022-07-30T00:13:49;99586.72;;;23.34;60.07
49102;BME280;34913;47.520;19.186;2022-07-30T00:16:14;99587.31;;;23.36;59.92
49102;BME280;34913;47.520;19.186;2022-07-30T00:18:40;99588.56;;;23.40;59.97
49102;BME280;34913;47.520;19.186;2022-07-30T00:21:05;99590.25;;;23.34;60.09
49102;BME280;34913;47.520;19.186;2022-07-30T00:23:31;99589.06;;;23.30;60.35
49102;BME280;34913;47.520;19.186;2022-07-30T00:25:57;99590.91;;;23.30;60.68
49102;BME280;34913;47.520;19.186;2022-07-30T00:28:22;99586.81;;;23.21;61.21
49102;BME280;34913;47.520;19.186;2022-07-30T00:30:48;99596.53;;;23.28;60.97
49102;BME280;34913;47.520;19.186;2022-07-30T00:33:14;99593.69;;;23.23;61.14
49102;BME280;34913;47.520;19.186;2022-07-30T00:35:40;99595.97;;;23.20;61.80
49102;BME280;34913;47.520;19.186;2022-07-30T00:38:05;99590.19;;;23.16;61.81
49102;BME280;34913;47.520;19.186;2022-07-30T00:40:31;99594.22;;;23.07;62.11
49102;BME280;34913;47.520;19.186;2022-07-30T00:42:56;99590.88;;;23.05;62.05
49102;BME280;34913;47.520;19.186;2022-07-30T00:45:21;99596.28;;;23.05;62.32
49102;BME280;34913;47.520;19.186;2022-07-30T00:47:47;99585.44;;;23.05;62.30
49102;BME280;34913;47.520;19.186;2022-07-30T00:50:14;99585.69;;;23.03;61.98
49102;BME280;34913;47.520;19.186;2022-07-30T00:52:40;99589.66;;;23.01;62.14
49102;BME280;34913;47.520;19.186;2022-07-30T00:55:08;99585.44;;;23.05;61.93
49102;BME280;34913;47.520;19.186;2022-07-30T00:57:34;99591.31;;;23.02;61.65
49102;BME280;34913;47.520;19.186;2022-07-30T01:00:00;99585.69;;;23.03;61.75
49102;BME280;34913;47.520;19.186;2022-07-30T01:02:25;99588.19;;;22.98;61.66
49102;BME280;34913;47.520;19.186;2022-07-30T01:04:51;99591.34;;;22.95;61.65
49102;BME280;34913;47.520;19.186;2022-07-30T01:07:16;99594.66;;;22.97;61.76
49102;BME280;34913;47.520;19.186;2022-07-30T01:09:42;99595.72;;;22.96;61.40
49102;BME280;34913;47.520;19.186;2022-07-30T01:12:09;99594.66;;;22.97;61.31
49102;BME280;34913;47.520;19.186;2022-07-30T01:14:36;99593.56;;;23.05;61.09
49102;BME280;34913;47.520;19.186;2022-07-30T01:17:03;99585.22;;;23.06;61.56
49102;BME280;34913;47.520;19.186;2022-07-30T01:19:33;99584.84;;;23.03;61.45
49102;BME280;34913;47.520;19.186;2022-07-30T01:22:28;99577.78;;;23.02;61.58
49102;BME280;34913;47.520;19.186;2022-07-30T01:25:08;99573.22;;;22.96;61.84
49102;BME280;34913;47.520;19.186;2022-07-30T01:27:40;99570.09;;;22.99;61.88
49102;BME280;34913;47.520;19.186;2022-07-30T01:30:08;99570.94;;;22.99;62.29
49102;BME280;34913;47.520;19.186;2022-07-30T01:32:38;99574.28;;;22.95;62.18
49102;BME280;34913;47.520;19.186;2022-07-30T01:35:05;99583.00;;;22.97;61.98
49102;BME280;34913;47.520;19.186;2022-07-30T01:37:33;99576.38;;;22.93;62.75
49102;BME280;34913;47.520;19.186;2022-07-30T01:39:59;99572.44;;;22.89;62.80
49102;BME280;34913;47.520;19.186;2022-07-30T01:42:26;99580.16;;;22.85;63.20
49102;BME280;34913;47.520;19.186;2022-07-30T01:44:53;99584.72;;;22.84;63.37
49102;BME280;34913;47.520;19.186;2022-07-30T01:47:20;99583.09;;;22.77;63.69
49102;BME280;34913;47.520;19.186;2022-07-30T01:49:48;99587.50;;;22.65;64.06
49102;BME280;34913;47.520;19.186;2022-07-30T01:52:16;99592.28;;;22.69;64.11
49102;BME280;34913;47.520;19.186;2022-07-30T01:54:43;99581.03;;;22.72;63.93
49102;BME280;34913;47.520;19.186;2022-07-30T01:57:10;99578.91;;;22.74;63.85
49102;BME280;34913;47.520;19.186;2022-07-30T01:59:38;99586.69;;;22.64;63.95
49102;BME280;34913;47.520;19.186;2022-07-30T02:02:04;99567.41;;;22.47;64.44
49102;BME280;34913;47.520;19.186;2022-07-30T02:04:30;99569.28;;;22.47;64.88
49102;BME280;34913;47.520;19.186;2022-07-30T02:07:02;99559.06;;;22.49;64.81
49102;BME280;34913;47.520;19.186;2022-07-30T02:09:35;99563.03;;;22.46;64.97
49102;BME280;34913;47.520;19.186;2022-07-30T02:12:03;99559.09;;;22.42;65.26
49102;BME280;34913;47.520;19.186;2022-07-30T02:14:53;99548.50;;;22.41;65.63
49102;BME280;34913;47.520;19.186;2022-07-30T02:17:28;99556.19;;;22.44;65.42
49102;BME280;34913;47.520;19.186;2022-07-30T02:19:58;99537.69;;;22.34;65.88
49102;BME280;34913;47.520;19.186;2022-07-30T02:22:27;99547.69;;;22.34;66.01
49102;BME280;34913;47.520;19.186;2022-07-30T02:24:55;99542.13;;;22.28;66.27
49102;BME280;34913;47.520;19.186;2022-07-30T02:27:29;99536.50;;;22.23;66.48
49102;BME280;34913;47.520;19.186;2022-07-30T02:29:58;99534.03;;;22.22;66.49
49102;BME280;34913;47.520;19.186;2022-07-30T02:32:26;99535.25;;;22.19;66.77
49102;BME280;34913;47.520;19.186;2022-07-30T02:34:58;99535.69;;;22.16;67.16
49102;BME280;34913;47.520;19.186;2022-07-30T02:37:26;99527.19;;;22.13;66.89
49102;BME280;34913;47.520;19.186;2022-07-30T02:39:53;99528.66;;;22.09;67.03
49102;BME280;34913;47.520;19.186;2022-07-30T02:42:20;99520.09;;;22.12;66.99
49102;BME280;34913;47.520;19.186;2022-07-30T02:44:47;99520.72;;;22.07;67.31
49102;BME280;34913;47.520;19.186;2022-07-30T02:47:15;99523.00;;;22.03;67.14
49102;BME280;34913;47.520;19.186;2022-07-30T02:49:43;99523.00;;;22.03;67.69
49102;BME280;34913;47.520;19.186;2022-07-30T02:52:11;99520.97;;;21.99;67.73
49102;BME280;34913;47.520;19.186;2022-07-30T02:54:41;99523.00;;;22.03;67.42
49102;BME280;34913;47.520;19.186;2022-07-30T02:57:07;99530.09;;;22.05;67.50
49102;BME280;34913;47.520;19.186;2022-07-30T02:59:35;99531.75;;;22.06;67.66
49102;BME280;34913;47.520;19.186;2022-07-30T03:02:03;99543.81;;;22.03;67.81
49102;BME280;34913;47.520;19.186;2022-07-30T03:04:31;99539.91;;;21.92;67.91
49102;BME280;34913;47.520;19.186;2022-07-30T03:06:58;99539.06;;;21.79;68.15
49102;BME280;34913;47.520;19.186;2022-07-30T03:09:25;99541.56;;;21.80;68.58
49102;BME280;34913;47.520;19.186;2022-07-30T03:11:51;99542.22;;;21.76;68.93
49102;BME280;34913;47.520;19.186;2022-07-30T03:14:18;99533.50;;;21.67;68.83
49102;BME280;34913;47.520;19.186;2022-07-30T03:16:46;99543.47;;;21.66;69.26
49102;BME280;34913;47.520;19.186;2022-07-30T03:19:14;99540.78;;;21.60;69.37
49102;BME280;34913;47.520;19.186;2022-07-30T03:21:41;99531.03;;;21.52;69.62
49102;BME280;34913;47.520;19.186;2022-07-30T03:24:07;99527.09;;;21.41;69.97
49102;BME280;34913;47.520;19.186;2022-07-30T03:26:36;99528.97;;;21.41;70.53
49102;BME280;34913;47.520;19.186;2022-07-30T03:29:04;99533.50;;;21.40;70.29
49102;BME280;34913;47.520;19.186;2022-07-30T03:31:31;99541.81;;;21.39;70.39
49102;BME280;34913;47.520;19.186;2022-07-30T03:33:56;99531.44;;;21.36;70.53
49102;BME280;34913;47.520;19.186;2022-07-30T03:36:23;99533.09;;;21.30;70.83
49102;BME280;34913;47.520;19.186;2022-07-30T03:38:49;99536.00;;;21.29;71.50
49102;BME280;34913;47.520;19.186;2022-07-30T03:41:16;99524.31;;;21.08;72.13
49102;BME280;34913;47.520;19.186;2022-07-30T03:43:42;99533.91;;;21.11;72.79
49102;BME280;34913;47.520;19.186;2022-07-30T03:46:08;99530.97;;;21.06;73.57
49102;BME280;34913;47.520;19.186;2022-07-30T03:48:34;99528.28;;;21.06;73.21
49102;BME280;34913;47.520;19.186;2022-07-30T03:51:06;99534.72;;;21.05;73.96
49102;BME280;34913;47.520;19.186;2022-07-30T03:53:33;99533.25;;;20.96;74.35
49102;BME280;34913;47.520;19.186;2022-07-30T03:55:59;99533.88;;;20.98;74.48
49102;BME280;34913;47.520;19.186;2022-07-30T03:58:25;99532.38;;;20.82;75.27
49102;BME280;34913;47.520;19.186;2022-07-30T04:00:50;99525.97;;;20.83;75.40
49102;BME280;34913;47.520;19.186;2022-07-30T04:03:30;99521.41;;;20.90;75.01
49102;BME280;34913;47.520;19.186;2022-07-30T04:05:56;99524.94;;;20.90;75.62
49102;BME280;34913;47.520;19.186;2022-07-30T04:08:22;99525.38;;;20.94;75.22
49102;BME280;34913;47.520;19.186;2022-07-30T04:10:48;99514.38;;;21.02;74.57
49102;BME280;34913;47.520;19.186;2022-07-30T04:13:14;99526.19;;;21.08;74.88
49102;BME280;34913;47.520;19.186;2022-07-30T04:16:15;99533.06;;;21.04;74.79
49102;BME280;34913;47.520;19.186;2022-07-30T04:18:46;99521.44;;;21.10;74.80
49102;BME280;34913;47.520;19.186;2022-07-30T04:21:14;99526.22;;;21.21;74.43
49102;BME280;34913;47.520;19.186;2022-07-30T04:23:41;99525.59;;;21.26;74.34
49102;BME280;34913;47.520;19.186;2022-07-30T04:26:08;99526.66;;;21.31;74.16
49102;BME280;34913;47.520;19.186;2022-07-30T04:28:34;99538.50;;;21.37;73.61
49102;BME280;34913;47.520;19.186;2022-07-30T04:31:01;99530.81;;;21.47;73.12
49102;BME280;34913;47.520;19.186;2022-07-30T04:33:27;99534.75;;;21.51;73.18
49102;BME280;34913;47.520;19.186;2022-07-30T04:35:52;99536.63;;;21.57;72.95
49102;BME280;34913;47.520;19.186;2022-07-30T04:38:18;99536.41;;;21.65;72.54
49102;BME280;34913;47.520;19.186;2022-07-30T04:40:44;99538.47;;;21.77;72.13
49102;BME280;34913;47.520;19.186;2022-07-30T04:43:10;99538.84;;;21.87;71.99
49102;BME280;34913;47.520;19.186;2022-07-30T04:45:38;99534.09;;;21.89;71.76
49102;BME280;34913;47.520;19.186;2022-07-30T04:48:03;99542.59;;;21.99;71.28
49102;BME280;34913;47.520;19.186;2022-07-30T04:50:29;99542.34;;;22.07;70.79
49102;BME280;34913;47.520;19.186;2022-07-30T04:52:55;99537.19;;;22.12;70.60
49102;BME280;34913;47.520;19.186;2022-07-30T04:55:21;99547.13;;;22.18;70.30
49102;BME280;34913;47.520;19.186;2022-07-30T04:57:49;99549.41;;;22.21;70.35
49102;BME280;34913;47.520;19.186;2022-07-30T05:00:16;99550.41;;;22.34;70.00
49102;BME280;34913;47.520;19.186;2022-07-30T05:02:42;99548.13;;;22.37;69.92
49102;BME280;34913;47.520;19.186;2022-07-30T05:05:10;99544.53;;;22.43;68.46
49102;BME280;34913;47.520;19.186;2022-07-30T05:07:36;99546.00;;;22.46;68.44
49102;BME280;34913;47.520;19.186;2022-07-30T05:10:02;99539.72;;;22.52;67.86
49102;BME280;34913;47.520;19.186;2022-07-30T05:12:32;99536.38;;;22.50;67.63
49102;BME280;34913;47.520;19.186;2022-07-30T05:14:58;99537.75;;;22.66;67.53
49102;BME280;34913;47.520;19.186;2022-07-30T05:17:23;99535.84;;;22.73;67.63
49102;BME280;34913;47.520;19.186;2022-07-30T05:19:49;99535.88;;;22.66;66.84
49102;BME280;34913;47.520;19.186;2022-07-30T05:22:14;99528.59;;;22.67;67.38
49102;BME280;34913;47.520;19.186;2022-07-30T05:24:40;99527.72;;;22.79;67.24
49102;BME280;34913;47.520;19.186;2022-07-30T05:27:05;99525.34;;;22.96;65.96
49102;BME280;34913;47.520;19.186;2022-07-30T05:29:31;99528.06;;;23.21;65.67
49102;BME280;34913;47.520;19.186;2022-07-30T05:31:56;99537.13;;;23.65;64.02
49102;BME280;34913;47.520;19.186;2022-07-30T05:34:21;99542.34;;;24.03;61.79
49102;BME280;34913;47.520;19.186;2022-07-30T05:36:47;99542.63;;;24.32;61.41
49102;BME280;34913;47.520;19.186;2022-07-30T05:39:12;99547.56;;;24.60;61.16
49102;BME280;34913;47.520;19.186;2022-07-30T05:41:38;99547.50;;;24.78;60.13
49102;BME280;34913;47.520;19.186;2022-07-30T05:44:03;99553.44;;;25.05;59.01
49102;BME280;34913;47.520;19.186;2022-07-30T05:46:29;99559.38;;;25.25;58.61
49102;BME280;34913;47.520;19.186;2022-07-30T05:48:55;99557.78;;;25.06;58.52
49102;BME280;34913;47.520;19.186;2022-07-30T05:51:20;99559.13;;;25.15;57.67
49102;BME280;34913;47.520;19.186;2022-07-30T05:53:46;99556.19;;;25.28;56.56
49102;BME280;34913;47.520;19.186;2022-07-30T05:56:12;99556.81;;;25.54;57.02
49102;BME280;34913;47.520;19.186;2022-07-30T05:58:38;99568.97;;;25.51;56.09
49102;BME280;34913;47.520;19.186;2022-07-30T06:01:03;99569.81;;;25.52;57.06
49102;BME280;34913;47.520;19.186;2022-07-30T06:03:28;99567.31;;;25.50;56.49
49102;BME280;34913;47.520;19.186;2022-07-30T06:06:03;99566.97;;;25.47;55.69
49102;BME280;34913;47.520;19.186;2022-07-30T06:08:29;99558.75;;;25.77;55.21
49102;BME280;34913;47.520;19.186;2022-07-30T06:10:54;99568.91;;;25.81;54.83
49102;BME280;34913;47.520;19.186;2022-07-30T06:13:20;99571.22;;;25.43;55.13
49102;BME280;34913;47.520;19.186;2022-07-30T06:15:45;99566.44;;;25.26;56.01
49102;BME280;34913;47.520;19.186;2022-07-30T06:18:10;99569.41;;;25.25;56.79
49102;BME280;34913;47.520;19.186;2022-07-30T06:20:36;99543.97;;;25.08;56.51
49102;BME280;34913;47.520;19.186;2022-07-30T06:23:01;99549.03;;;25.04;58.41
49102;BME280;34913;47.520;19.186;2022-07-30T06:25:27;99563.13;;;24.94;59.38
49102;BME280;34913;47.520;19.186;2022-07-30T06:27:52;99560.47;;;24.76;59.49
49102;BME280;34913;47.520;19.186;2022-07-30T06:30:18;99564.19;;;24.63;60.21
49102;BME280;34913;47.520;19.186;2022-07-30T06:32:43;99566.84;;;24.52;59.18
49102;BME280;34913;47.520;19.186;2022-07-30T06:35:10;99567.59;;;24.40;60.28
49102;BME280;34913;47.520;19.186;2022-07-30T06:37:35;99563.13;;;24.34;61.22
49102;BME280;34913;47.520;19.186;2022-07-30T06:40:00;99565.13;;;24.39;63.17
49102;BME280;34913;47.520;19.186;2022-07-30T06:42:26;99555.69;;;24.23;67.06
49102;BME280;34913;47.520;19.186;2022-07-30T06:44:52;99567.28;;;24.12;68.50
49102;BME280;34913;47.520;19.186;2022-07-30T06:47:21;99577.84;;;24.02;68.93
49102;BME280;34913;47.520;19.186;2022-07-30T06:49:56;99578.50;;;23.97;69.40
49102;BME280;34913;47.520;19.186;2022-07-30T06:52:22;99582.56;;;23.88;71.39
49102;BME280;34913;47.520;19.186;2022-07-30T06:54:48;99583.22;;;23.83;72.99
49102;BME280;34913;47.520;19.186;2022-07-30T06:57:14;99568.06;;;23.76;73.60
49102;BME280;34913;47.520;19.186;2022-07-30T06:59:40;99570.78;;;23.76;72.27
49102;BME280;34913;47.520;19.186;2022-07-30T07:02:05;99572.06;;;23.73;69.03
49102;BME280;34913;47.520;19.186;2022-07-30T07:04:31;99560.66;;;23.64;68.91
49102;BME280;34913;47.520;19.186;2022-07-30T07:06:57;99575.38;;;23.75;69.78
49102;BME280;34913;47.520;19.186;2022-07-30T07:09:22;99580.13;;;23.80;68.40
49102;BME280;34913;47.520;19.186;2022-07-30T07:11:48;99578.09;;;23.93;69.41
49102;BME280;34913;47.520;19.186;2022-07-30T07:14:13;99575.19;;;23.95;68.47
49102;BME280;34913;47.520;19.186;2022-07-30T07:16:39;99565.00;;;24.09;68.41
49102;BME280;34913;47.520;19.186;2022-07-30T07:19:05;99566.47;;;24.11;67.69
49102;BME280;34913;47.520;19.186;2022-07-30T07:21:30;99566.28;;;24.49;66.35
49102;BME280;34913;47.520;19.186;2022-07-30T07:23:55;99555.22;;;24.81;64.28
49102;BME280;34913;47.520;19.186;2022-07-30T07:26:21;99563.44;;;24.74;63.51
49102;BME280;34913;47.520;19.186;2022-07-30T07:28:46;99551.44;;;24.64;66.17
49102;BME280;34913;47.520;19.186;2022-07-30T07:31:12;99559.81;;;24.62;64.22
49102;BME280;34913;47.520;19.186;2022-07-30T07:33:37;99549.53;;;24.53;64.20
49102;BME280;34913;47.520;19.186;2022-07-30T07:36:05;99557.06;;;24.32;63.79
49102;BME280;34913;47.520;19.186;2022-07-30T07:38:30;99549.66;;;24.21;62.14
49102;BME280;34913;47.520;19.186;2022-07-30T07:40:56;99554.25;;;24.20;62.19
49102;BME280;34913;47.520;19.186;2022-07-30T07:43:21;99559.91;;;24.19;62.32
49102;BME280;34913;47.520;19.186;2022-07-30T07:45:46;99543.56;;;23.89;62.25
49102;BME280;34913;47.520;19.186;2022-07-30T07:48:12;99536.59;;;23.75;66.57
49102;BME280;34913;47.520;19.186;2022-07-30T07:50:38;99529.00;;;23.58;67.34
49102;BME280;34913;47.520;19.186;2022-07-30T07:53:04;99529.34;;;23.44;69.01
49102;BME280;34913;47.520;19.186;2022-07-30T07:55:30;99527.09;;;23.16;72.92
49102;BME280;34913;47.520;19.186;2022-07-30T07:57:56;99530.91;;;23.08;74.43
49102;BME280;34913;47.520;19.186;2022-07-30T08:00:21;99542.59;;;23.02;75.49
49102;BME280;34913;47.520;19.186;2022-07-30T08:02:47;99558.69;;;22.90;71.77
49102;BME280;34913;47.520;19.186;2022-07-30T08:05:13;99562.28;;;22.77;72.52
49102;BME280;34913;47.520;19.186;2022-07-30T08:07:39;99578.47;;;22.84;75.60
49102;BME280;34913;47.520;19.186;2022-07-30T08:10:07;99581.19;;;22.84;79.39
49102;BME280;34913;47.520;19.186;2022-07-30T08:12:33;99597.44;;;22.77;80.37
49102;BME280;34913;47.520;19.186;2022-07-30T08:14:59;99622.84;;;22.76;78.06
49102;BME280;34913;47.520;19.186;2022-07-30T08:17:24;99629.97;;;22.64;77.68
49102;BME280;34913;47.520;19.186;2022-07-30T08:19:50;99617.09;;;22.60;84.13
49102;BME280;34913;47.520;19.186;2022-07-30T08:22:15;99591.38;;;22.37;82.11
49102;BME280;34913;47.520;19.186;2022-07-30T08:24:41;99585.09;;;22.43;80.96
49102;BME280;34913;47.520;19.186;2022-07-30T08:27:06;99581.97;;;22.46;80.60
49102;BME280;34913;47.520;19.186;2022-07-30T08:29:32;99581.13;;;22.52;78.96
49102;BME280;34913;47.520;19.186;2022-07-30T08:31:57;99566.16;;;22.43;81.50
49102;BME280;34913;47.520;19.186;2022-07-30T08:34:23;99571.19;;;22.33;79.96
49102;BME280;34913;47.520;19.186;2022-07-30T08:36:49;99583.88;;;22.33;82.23
49102;BME280;34913;47.520;19.186;2022-07-30T08:39:14;99599.91;;;22.34;85.25
49102;BME280;34913;47.520;19.186;2022-07-30T08:41:40;99613.63;;;22.39;85.99
49102;BME280;34913;47.520;19.186;2022-07-30T08:44:09;99618.59;;;22.42;83.76
49102;BME280;34913;47.520;19.186;2022-07-30T08:46:35;99611.94;;;22.45;83.23
49102;BME280;34913;47.520;19.186;2022-07-30T08:49:05;99612.53;;;22.53;82.74
49102;BME280;34913;47.520;19.186;2022-07-30T08:51:32;99613.72;;;22.64;83.21
49102;BME280;34913;47.520;19.186;2022-07-30T08:53:58;99608.94;;;22.66;80.37
49102;BME280;34913;47.520;19.186;2022-07-30T08:56:26;99604.75;;;22.70;82.65
49102;BME280;34913;47.520;19.186;2022-07-30T08:58:52;99618.63;;;22.94;83.36
49102;BME280;34913;47.520;19.186;2022-07-30T09:01:17;99610.03;;;23.03;82.90
49102;BME280;34913;47.520;19.186;2022-07-30T09:03:43;99613.91;;;23.14;80.21
49102;BME280;34913;47.520;19.186;2022-07-30T09:06:08;99604.72;;;23.22;78.92
49102;BME280;34913;47.520;19.186;2022-07-30T09:08:34;99602.63;;;23.55;78.24
49102;BME280;34913;47.520;19.186;2022-07-30T09:10:59;99609.41;;;23.71;75.96
49102;BME280;34913;47.520;19.186;2022-07-30T09:15:54;99594.16;;;23.95;75.20
49102;BME280;34913;47.520;19.186;2022-07-30T09:18:27;99602.50;;;23.93;75.24
49102;BME280;34913;47.520;19.186;2022-07-30T09:20:53;99599.72;;;24.00;76.46
49102;BME280;34913;47.520;19.186;2022-07-30T09:23:19;99597.75;;;23.89;74.35
49102;BME280;34913;47.520;19.186;2022-07-30T09:25:46;99598.19;;;23.61;72.18
49102;BME280;34913;47.520;19.186;2022-07-30T09:28:12;99598.28;;;23.48;73.42
49102;BME280;34913;47.520;19.186;2022-07-30T09:30:50;99591.66;;;23.44;73.17
49102;BME280;34913;47.520;19.186;2022-07-30T09:33:44;99589.88;;;23.31;73.96
49102;BME280;34913;47.520;19.186;2022-07-30T09:36:13;99596.38;;;23.23;74.67
49102;BME280;34913;47.520;19.186;2022-07-30T09:38:57;99595.88;;;23.08;75.44
49102;BME280;34913;47.520;19.186;2022-07-30T09:41:33;99584.25;;;23.01;75.96
49102;BME280;34913;47.520;19.186;2022-07-30T09:44:03;99599.81;;;23.05;75.77
49102;BME280;34913;47.520;19.186;2022-07-30T09:46:46;99597.09;;;23.05;77.18
49102;BME280;34913;47.520;19.186;2022-07-30T09:49:20;99596.16;;;22.93;77.32
49102;BME280;34913;47.520;19.186;2022-07-30T09:51:47;99593.69;;;22.85;77.91
49102;BME280;34913;47.520;19.186;2022-07-30T09:54:13;99597.22;;;22.79;78.09
49102;BME280;34913;47.520;19.186;2022-07-30T09:56:38;99600.38;;;22.76;77.93
49102;BME280;34913;47.520;19.186;2022-07-30T09:59:05;99608.69;;;22.74;79.30
49102;BME280;34913;47.520;19.186;2022-07-30T10:01:51;99628.69;;;22.67;81.66
49102;BME280;34913;47.520;19.186;2022-07-30T10:04:31;99647.25;;;22.56;82.56
49102;BME280;34913;47.520;19.186;2022-07-30T10:06:58;99673.94;;;22.46;84.38
49102;BME280;34913;47.520;19.186;2022-07-30T10:09:32;99708.69;;;22.29;86.38
49102;BME280;34913;47.520;19.186;2022-07-30T10:12:03;99707.81;;;21.96;88.01
49102;BME280;34913;47.520;19.186;2022-07-30T10:14:32;99702.19;;;21.71;88.14
49102;BME280;34913;47.520;19.186;2022-07-30T10:16:58;99674.53;;;21.42;90.88
49102;BME280;34913;47.520;19.186;2022-07-30T10:19:24;99651.59;;;21.12;93.17
49102;BME280;34913;47.520;19.186;2022-07-30T10:21:50;99628.88;;;20.80;95.70
49102;BME280;34913;47.520;19.186;2022-07-30T10:24:18;99618.81;;;20.60;97.78
49102;BME280;34913;47.520;19.186;2022-07-30T10:26:45;99606.06;;;20.41;100.00
49102;BME280;34913;47.520;19.186;2022-07-30T10:29:11;99601.38;;;20.15;100.00
49102;BME280;34913;47.520;19.186;2022-07-30T10:31:39;99602.56;;;20.13;100.00
49102;BME280;34913;47.520;19.186;2022-07-30T10:34:05;99618.53;;;20.14;100.00
49102;BME280;34913;47.520;19.186;2022-07-30T10:36:32;99638.94;;;20.23;100.00
49102;BME280;34913;47.520;19.186;2022-07-30T10:38:59;99642.50;;;20.30;100.00
49102;BME280;34913;47.520;19.186;2022-07-30T10:47:07;99645.91;;;20.46;100.00
49102;BME280;34913;47.520;19.186;2022-07-30T10:49:34;99647.19;;;20.50;100.00
49102;BME280;34913;47.520;19.186;2022-07-30T10:52:00;99645.13;;;20.52;100.00
49102;BME280;34913;47.520;19.186;2022-07-30T10:54:42;99641.22;;;20.54;100.00
49102;BME280;34913;47.520;19.186;2022-07-30T10:57:18;99631.88;;;20.57;100.00
49102;BME280;34913;47.520;19.186;2022-07-30T11:02:27;99622.50;;;20.53;100.00
49102;BME280;34913;47.520;19.186;2022-07-30T11:07:46;99603.53;;;20.33;100.00
49102;BME280;34913;47.520;19.186;2022-07-30T11:10:34;99609.50;;;20.28;100.00
49102;BME280;34913;47.520;19.186;2022-07-30T11:13:01;99594.41;;;20.34;100.00
49102;BME280;34913;47.520;19.186;2022-07-30T11:15:53;99580.06;;;20.27;100.00
49102;BME280;34913;47.520;19.186;2022-07-30T11:18:19;99564.72;;;20.27;100.00
49102;BME280;34913;47.520;19.186;2022-07-30T11:21:12;99553.19;;;20.40;100.00
49102;BME280;34913;47.520;19.186;2022-07-30T11:23:38;99550.78;;;20.58;100.00
49102;BME280;34913;47.520;19.186;2022-07-30T11:26:04;99544.97;;;20.61;100.00
49102;BME280;34913;47.520;19.186;2022-07-30T11:28:59;99546.28;;;20.79;100.00
49102;BME280;34913;47.520;19.186;2022-07-30T11:33:51;99533.09;;;21.30;100.00
49102;BME280;34913;47.520;19.186;2022-07-30T11:36:17;99550.97;;;21.44;100.00
49102;BME280;34913;47.520;19.186;2022-07-30T11:41:15;99555.94;;;21.74;100.00
49102;BME280;34913;47.520;19.186;2022-07-30T11:43:40;99552.19;;;21.88;100.00
49102;BME280;34913;47.520;19.186;2022-07-30T11:46:08;99557.59;;;21.88;99.14
49102;BME280;34913;47.520;19.186;2022-07-30T11:48:35;99561.13;;;21.76;98.45
49102;BME280;34913;47.520;19.186;2022-07-30T11:51:02;99554.28;;;21.66;99.44
49102;BME280;34913;47.520;19.186;2022-07-30T11:53:28;99552.38;;;21.80;99.12
49102;BME280;34913;47.520;19.186;2022-07-30T11:55:55;99547.00;;;21.67;97.88
49102;BME280;34913;47.520;19.186;2022-07-30T11:58:35;99543.03;;;21.69;98.33
49102;BME280;34913;47.520;19.186;2022-07-30T12:01:15;99533.25;;;21.88;97.60
49102;BME280;34913;47.520;19.186;2022-07-30T12:03:42;99534.66;;;22.11;94.87
49102;BME280;34913;47.520;19.186;2022-07-30T12:06:13;99527.94;;;22.78;91.97
49102;BME280;34913;47.520;19.186;2022-07-30T12:08:51;99523.22;;;22.98;95.86
49102;BME280;34913;47.520;19.186;2022-07-30T12:11:17;99519.75;;;23.23;90.76
49102;BME280;34913;47.520;19.186;2022-07-30T12:13:55;99515.22;;;23.17;89.67
49102;BME280;34913;47.520;19.186;2022-07-30T12:16:23;99499.81;;;22.79;88.09
49102;BME280;34913;47.520;19.186;2022-07-30T12:18:49;99502.19;;;22.69;89.51
49102;BME280;34913;47.520;19.186;2022-07-30T12:21:15;99497.25;;;22.91;89.89
49102;BME280;34913;47.520;19.186;2022-07-30T12:23:42;99490.00;;;23.16;87.74
49102;BME280;34913;47.520;19.186;2022-07-30T12:26:22;99500.34;;;23.26;89.26
49102;BME280;34913;47.520;19.186;2022-07-30T12:28:48;99505.38;;;22.91;84.88
49102;BME280;34913;47.520;19.186;2022-07-30T12:31:15;99493.47;;;22.98;89.23
49102;BME280;34913;47.520;19.186;2022-07-30T12:33:40;99477.50;;;22.90;85.48
49102;BME280;34913;47.520;19.186;2022-07-30T12:36:06;99498.66;;;23.50;86.54
49102;BME280;34913;47.520;19.186;2022-07-30T12:38:43;99491.66;;;23.67;82.42
49102;BME280;34913;47.520;19.186;2022-07-30T12:41:13;99488.56;;;23.63;82.87
49102;BME280;34913;47.520;19.186;2022-07-30T12:43:54;99477.09;;;23.61;81.04
49102;BME280;34913;47.520;19.186;2022-07-30T12:46:22;99479.22;;;23.78;81.15
49102;BME280;34913;47.520;19.186;2022-07-30T12:48:53;99472.91;;;23.84;80.75
49102;BME280;34913;47.520;19.186;2022-07-30T12:51:20;99468.31;;;23.84;77.63
49102;BME280;34913;47.520;19.186;2022-07-30T12:53:46;99467.88;;;23.69;81.73
49102;BME280;34913;47.520;19.186;2022-07-30T12:56:15;99463.97;;;23.65;81.65
49102;BME280;34913;47.520;19.186;2022-07-30T12:58:41;99476.69;;;23.64;82.87
49102;BME280;34913;47.520;19.186;2022-07-30T13:01:07;99479.72;;;23.50;79.55
49102;BME280;34913;47.520;19.186;2022-07-30T13:03:34;99480.44;;;23.63;81.67
49102;BME280;34913;47.520;19.186;2022-07-30T13:06:19;99486.56;;;23.52;81.18
49102;BME280;34913;47.520;19.186;2022-07-30T13:11:14;99491.88;;;23.65;82.31
49102;BME280;34913;47.520;19.186;2022-07-30T13:13:39;99491.06;;;23.40;74.98
49102;BME280;34913;47.520;19.186;2022-07-30T13:16:06;99502.78;;;23.34;76.38